Terminal Aerodrome Forecast
Issued by NWS

Home | Current Version | Previous Version | Text Only | Print | Product List | Glossary On
Versions: 1 2 3 4 5 6 7 8 9 10 11 12 13 14 15 16 17 18 19 20 21
000
FTUS41 KBOX 210524
TAFBED
TAF
KBED 210524Z 2106/2206 01010KT P6SM BKN045
     FM211200 02015G27KT P6SM BKN015
     FM212100 03012G23KT P6SM BKN040=

USA.gov is the U.S. government's official web portal to all federal, state and local government web resources and services.